createdAt,value
2022-11-16T00:01:40.285Z,6.54
2022-11-16T00:04:07.180Z,6.53
2022-11-16T00:06:33.962Z,6.50
2022-11-16T00:09:21.332Z,6.55
2022-11-16T00:11:56.405Z,6.51
2022-11-16T00:14:25.382Z,6.53
2022-11-16T00:16:52.059Z,6.51
2022-11-16T00:19:19.095Z,6.44
2022-11-16T00:21:45.915Z,6.42
2022-11-16T00:24:14.889Z,6.56
2022-11-16T00:26:42.225Z,6.54
2022-11-16T00:29:17.215Z,6.56
2022-11-16T00:31:45.242Z,6.53
2022-11-16T00:34:12.159Z,6.54
2022-11-16T00:36:39.143Z,6.51
2022-11-16T00:39:05.873Z,6.57
2022-11-16T00:41:32.582Z,6.57
2022-11-16T00:43:59.342Z,6.68
2022-11-16T00:46:26.086Z,6.55
2022-11-16T00:48:52.944Z,6.50
2022-11-16T00:51:19.655Z,6.66
2022-11-16T00:53:46.377Z,6.61
2022-11-16T00:56:13.094Z,6.62
2022-11-16T00:58:39.884Z,6.69
2022-11-16T01:01:08.564Z,6.53
2022-11-16T01:03:36.518Z,6.61
2022-11-16T01:06:09.430Z,6.54
2022-11-16T01:08:38.096Z,6.58
2022-11-16T01:11:24.562Z,6.61
2022-11-16T01:13:51.475Z,6.60
2022-11-16T01:16:21.881Z,6.69
2022-11-16T01:18:50.518Z,6.70
2022-11-16T01:21:17.890Z,6.69
2022-11-16T01:23:44.684Z,6.77
2022-11-16T01:26:11.329Z,6.69
2022-11-16T01:28:38.069Z,6.65
2022-11-16T01:31:04.868Z,6.56
2022-11-16T01:33:31.604Z,6.61
2022-11-16T01:35:58.349Z,6.52
2022-11-16T01:38:29.499Z,6.57
2022-11-16T01:40:56.975Z,6.57
2022-11-16T01:43:25.731Z,6.64
2022-11-16T01:45:52.834Z,6.56
2022-11-16T01:48:26.084Z,6.61
2022-11-16T01:50:55.234Z,6.69
2022-11-16T01:53:21.955Z,6.72
2022-11-16T01:55:49.009Z,6.60
2022-11-16T01:58:19.799Z,6.59
2022-11-16T02:00:46.865Z,6.60
2022-11-16T02:03:13.620Z,6.67
2022-11-16T02:05:51.667Z,6.63
2022-11-16T02:08:55.917Z,6.67
2022-11-16T02:12:05.457Z,6.73
2022-11-16T02:15:01.006Z,6.70
2022-11-16T02:17:40.729Z,6.75
2022-11-16T02:20:28.493Z,6.69
2022-11-16T02:23:01.270Z,6.73
2022-11-16T02:25:45.181Z,6.75
2022-11-16T02:28:34.570Z,6.59
2022-11-16T02:31:06.305Z,6.70
2022-11-16T02:33:41.136Z,6.72
2022-11-16T02:36:12.428Z,6.79
2022-11-16T02:38:43.046Z,6.74
2022-11-16T02:41:15.338Z,6.67
2022-11-16T02:43:46.607Z,6.77
2022-11-16T02:46:21.210Z,6.71
2022-11-16T02:48:52.932Z,6.73
2022-11-16T02:51:21.000Z,6.84
2022-11-16T02:54:08.690Z,6.71
2022-11-16T02:56:55.196Z,6.82
2022-11-16T02:59:24.426Z,6.75
2022-11-16T03:02:12.227Z,6.87
2022-11-16T03:04:48.601Z,6.80
2022-11-16T03:07:20.326Z,6.92
2022-11-16T03:09:49.058Z,6.94
2022-11-16T03:12:24.076Z,6.80
2022-11-16T03:14:54.438Z,6.79
2022-11-16T03:17:37.085Z,6.74
2022-11-16T03:20:13.770Z,6.75
2022-11-16T03:22:51.492Z,6.75
2022-11-16T03:25:20.491Z,6.68
2022-11-16T03:28:12.897Z,6.77
2022-11-16T03:30:51.210Z,6.89
2022-11-16T03:33:20.870Z,6.90
2022-11-16T03:36:09.362Z,6.80
2022-11-16T03:38:40.250Z,6.74
2022-11-16T03:41:10.012Z,6.75
2022-11-16T03:43:39.184Z,6.67
2022-11-16T03:46:06.485Z,6.82
2022-11-16T03:48:37.325Z,6.84
2022-11-16T03:51:05.215Z,6.84
2022-11-16T03:53:31.895Z,6.83
2022-11-16T03:55:58.563Z,6.78
2022-11-16T03:58:25.340Z,6.80
2022-11-16T04:00:52.873Z,6.87
2022-11-16T04:03:19.958Z,6.79
2022-11-16T04:06:06.943Z,6.79
2022-11-16T04:08:52.348Z,6.84
2022-11-16T04:11:40.336Z,6.81
2022-11-16T04:14:31.968Z,6.82
2022-11-16T04:17:17.587Z,6.95
2022-11-16T04:20:02.789Z,6.94
2022-11-16T04:22:53.234Z,6.69
2022-11-16T04:25:25.450Z,6.73
2022-11-16T04:28:13.355Z,6.76
2022-11-16T04:31:10.686Z,6.73
2022-11-16T04:33:56.487Z,6.87
2022-11-16T04:36:41.949Z,6.84
2022-11-16T04:39:08.902Z,6.81
2022-11-16T04:41:54.045Z,6.75
2022-11-16T04:44:22.115Z,6.76
2022-11-16T04:47:06.436Z,6.74
2022-11-16T04:49:33.103Z,6.82
2022-11-16T04:51:59.808Z,6.78
2022-11-16T04:54:26.407Z,6.78
2022-11-16T04:56:53.163Z,6.59
2022-11-16T04:59:19.906Z,6.65
2022-11-16T05:02:05.167Z,6.61
2022-11-16T05:04:31.829Z,6.68
2022-11-16T05:06:58.564Z,6.72
2022-11-16T05:09:25.311Z,6.74
2022-11-16T05:11:52.096Z,6.78
2022-11-16T05:14:18.659Z,6.62
2022-11-16T05:16:45.264Z,6.77
2022-11-16T05:19:30.534Z,6.80
2022-11-16T05:21:57.124Z,6.72
2022-11-16T05:24:38.325Z,6.75
2022-11-16T05:27:08.217Z,6.77
2022-11-16T05:29:35.186Z,6.76
2022-11-16T05:32:02.498Z,6.75
2022-11-16T05:34:32.267Z,6.86
2022-11-16T05:36:59.513Z,6.72
2022-11-16T05:39:32.660Z,6.82
2022-11-16T05:41:59.430Z,6.83
2022-11-16T05:44:28.368Z,6.65
2022-11-16T05:46:56.220Z,6.73
2022-11-16T05:49:25.584Z,6.80
2022-11-16T05:51:52.745Z,6.72
2022-11-16T05:54:21.328Z,6.68
2022-11-16T05:56:49.412Z,6.76
2022-11-16T05:59:18.213Z,6.69
2022-11-16T06:01:45.432Z,6.70
2022-11-16T06:04:13.091Z,6.64
2022-11-16T06:06:40.297Z,6.72
2022-11-16T06:09:07.904Z,6.76
2022-11-16T06:11:36.335Z,6.70
2022-11-16T06:14:03.615Z,6.77
2022-11-16T06:16:30.389Z,6.78
2022-11-16T06:18:57.186Z,6.69
2022-11-16T06:21:23.910Z,6.71
2022-11-16T06:23:50.751Z,6.77
2022-11-16T06:26:17.630Z,6.86
2022-11-16T06:31:33.128Z,6.92
2022-11-16T06:33:59.804Z,6.87
2022-11-16T06:36:26.715Z,6.87
2022-11-16T06:38:53.468Z,6.87
2022-11-16T06:41:20.278Z,6.88
2022-11-16T06:43:46.963Z,6.95
2022-11-16T06:46:13.821Z,6.93
2022-11-16T06:48:40.492Z,6.94
2022-11-16T06:51:07.152Z,7.02
2022-11-16T06:53:33.838Z,7.19
2022-11-16T06:56:02.400Z,7.22
2022-11-16T06:58:31.839Z,7.07
2022-11-16T07:01:06.028Z,7.19
2022-11-16T07:03:33.029Z,7.00
2022-11-16T07:05:59.694Z,7.01
2022-11-16T07:08:28.060Z,7.09
2022-11-16T07:10:54.757Z,7.04
2022-11-16T07:13:21.484Z,7.14
2022-11-16T07:15:48.074Z,7.18
2022-11-16T07:18:14.680Z,7.16
2022-11-16T07:20:41.334Z,7.14
2022-11-16T07:23:12.917Z,7.12
2022-11-16T07:25:40.983Z,7.06
2022-11-16T07:28:07.670Z,7.08
2022-11-16T07:30:34.362Z,7.05
2022-11-16T07:33:01.031Z,7.25
2022-11-16T07:35:27.798Z,7.18
2022-11-16T07:37:54.596Z,7.21
2022-11-16T07:40:21.433Z,7.13
2022-11-16T07:42:48.314Z,7.29
2022-11-16T07:45:15.149Z,7.38
2022-11-16T07:47:41.860Z,7.52
2022-11-16T07:50:10.838Z,7.54
2022-11-16T07:52:37.724Z,7.36
2022-11-16T07:55:05.771Z,7.39
2022-11-16T07:57:32.559Z,7.42
2022-11-16T07:59:59.219Z,7.50
2022-11-16T08:02:25.919Z,7.47
2022-11-16T08:04:52.670Z,7.58
2022-11-16T08:07:19.498Z,7.51
2022-11-16T08:09:46.393Z,7.41
2022-11-16T08:12:13.436Z,7.57
2022-11-16T08:14:40.132Z,7.51
2022-11-16T08:17:08.406Z,7.59
2022-11-16T08:19:36.637Z,7.64
2022-11-16T08:22:03.944Z,7.62
2022-11-16T08:24:31.401Z,7.62
2022-11-16T08:26:58.925Z,7.55
2022-11-16T08:29:26.396Z,7.64
2022-11-16T08:31:53.482Z,7.58
2022-11-16T08:34:20.311Z,7.57
2022-11-16T08:36:47.399Z,7.50
2022-11-16T08:39:14.202Z,7.70
2022-11-16T08:41:42.315Z,7.84
2022-11-16T08:44:14.967Z,7.78
2022-11-16T08:46:42.006Z,7.84
2022-11-16T08:49:08.681Z,7.93
2022-11-16T08:51:35.377Z,7.73
2022-11-16T08:54:03.783Z,7.92
2022-11-16T08:56:30.533Z,7.92
2022-11-16T08:58:59.210Z,7.84
2022-11-16T09:01:29.681Z,7.75
2022-11-16T09:03:56.948Z,7.67
2022-11-16T09:06:25.459Z,7.86
2022-11-16T09:08:52.410Z,7.86
2022-11-16T09:11:22.086Z,7.90
2022-11-16T09:13:50.858Z,8.24
2022-11-16T09:16:20.944Z,8.12
2022-11-16T09:18:49.158Z,8.22
2022-11-16T09:21:24.572Z,7.93
2022-11-16T09:23:52.103Z,7.98
2022-11-16T09:26:21.441Z,8.06
2022-11-16T09:28:58.337Z,8.16
2022-11-16T09:31:30.454Z,8.19
2022-11-16T09:33:58.909Z,8.30
2022-11-16T09:36:27.668Z,8.08
2022-11-16T09:39:23.775Z,8.25
2022-11-16T09:42:09.161Z,8.36
2022-11-16T09:44:57.544Z,8.23
2022-11-16T09:47:42.228Z,8.18
2022-11-16T09:50:26.991Z,8.23
2022-11-16T09:52:57.820Z,7.94
2022-11-16T09:55:38.429Z,8.01
2022-11-16T09:58:08.109Z,7.84
2022-11-16T10:00:36.211Z,8.06
2022-11-16T10:03:12.245Z,8.26
2022-11-16T10:05:55.081Z,8.33
2022-11-16T10:08:41.985Z,8.22
2022-11-16T10:11:30.476Z,8.33
2022-11-16T10:14:22.008Z,8.41
2022-11-16T10:17:13.400Z,8.70
2022-11-16T10:19:58.474Z,8.59
2022-11-16T10:22:31.007Z,8.49
2022-11-16T10:24:59.387Z,8.56
2022-11-16T10:27:53.381Z,8.66
2022-11-16T10:30:21.929Z,8.33
2022-11-16T10:33:13.477Z,8.28
2022-11-16T10:35:47.947Z,8.56
2022-11-16T10:38:17.361Z,8.63
2022-11-16T10:40:49.951Z,8.80
2022-11-16T10:43:37.763Z,8.55
2022-11-16T10:46:29.264Z,8.68
2022-11-16T10:49:46.960Z,8.60
2022-11-16T10:52:13.553Z,8.60
2022-11-16T10:54:44.212Z,8.68
2022-11-16T10:57:14.366Z,8.43
2022-11-16T10:59:59.094Z,8.67
2022-11-16T11:02:32.415Z,8.61
2022-11-16T11:05:08.231Z,8.77
2022-11-16T11:07:39.942Z,8.92
2022-11-16T11:10:30.223Z,8.74
2022-11-16T11:13:11.964Z,8.94
2022-11-16T11:15:42.821Z,9.03
2022-11-16T11:18:29.716Z,9.25
2022-11-16T11:21:12.806Z,9.19
2022-11-16T11:23:47.631Z,8.99
2022-11-16T11:26:33.119Z,9.17
2022-11-16T11:29:15.820Z,8.87
2022-11-16T11:31:45.074Z,8.77
2022-11-16T11:34:17.556Z,8.75
2022-11-16T11:36:49.269Z,8.90
2022-11-16T11:39:18.856Z,8.70
2022-11-16T11:41:59.880Z,8.82
2022-11-16T11:44:54.515Z,8.60
2022-11-16T11:47:57.278Z,8.71
2022-11-16T11:51:02.278Z,8.62
2022-11-16T11:53:55.105Z,8.45
2022-11-16T11:56:22.532Z,8.54
2022-11-16T11:58:49.992Z,8.52
2022-11-16T12:01:48.177Z,8.43
2022-11-16T12:04:52.985Z,8.56
2022-11-16T12:08:00.900Z,8.64
2022-11-16T12:11:01.598Z,8.65
2022-11-16T12:13:40.693Z,8.52
2022-11-16T12:17:00.561Z,8.58
2022-11-16T12:19:39.222Z,8.61
2022-11-16T12:22:59.717Z,8.58
2022-11-16T12:25:30.269Z,8.52
2022-11-16T12:28:12.249Z,8.33
2022-11-16T12:31:22.470Z,8.48
2022-11-16T12:34:14.912Z,8.57
2022-11-16T12:36:54.424Z,8.86
2022-11-16T12:39:28.432Z,8.54
2022-11-16T12:42:22.412Z,8.62
2022-11-16T12:45:02.225Z,8.48
2022-11-16T12:47:38.975Z,8.54
2022-11-16T12:50:33.593Z,8.43
2022-11-16T12:53:28.199Z,8.44
2022-11-16T12:56:09.224Z,8.41
2022-11-16T12:59:06.411Z,8.53
2022-11-16T13:01:42.000Z,8.52
2022-11-16T13:04:20.922Z,8.41
2022-11-16T13:07:00.781Z,8.39
2022-11-16T13:09:36.353Z,8.48
2022-11-16T13:12:14.277Z,8.37
2022-11-16T13:14:45.035Z,8.34
2022-11-16T13:17:25.419Z,8.26
2022-11-16T13:20:37.552Z,8.33
2022-11-16T13:23:32.436Z,8.41
2022-11-16T13:26:10.553Z,8.32
2022-11-16T13:28:52.113Z,8.33
2022-11-16T13:31:33.571Z,8.47
2022-11-16T13:34:05.635Z,8.45
2022-11-16T13:36:32.217Z,8.44
2022-11-16T13:38:59.199Z,8.35
2022-11-16T13:41:27.209Z,8.30
2022-11-16T13:43:54.113Z,8.27
2022-11-16T13:46:53.632Z,8.24
2022-11-16T13:49:22.700Z,8.36
2022-11-16T13:52:11.358Z,8.41
2022-11-16T13:54:49.193Z,8.47
2022-11-16T13:57:31.504Z,8.40
2022-11-16T14:00:00.966Z,8.40
2022-11-16T14:02:41.914Z,8.38
2022-11-16T14:05:33.607Z,8.30
2022-11-16T14:08:20.172Z,8.39
2022-11-16T14:10:52.697Z,8.48
2022-11-16T14:13:42.628Z,8.29
2022-11-16T14:16:15.599Z,8.39
2022-11-16T14:19:01.133Z,8.43
2022-11-16T14:21:54.563Z,8.36
2022-11-16T14:24:47.160Z,8.33
2022-11-16T14:28:11.379Z,8.34
2022-11-16T14:30:50.326Z,8.33
2022-11-16T14:33:30.049Z,8.40
2022-11-16T14:35:57.080Z,8.27
2022-11-16T14:38:36.727Z,8.32
2022-11-16T14:41:07.523Z,8.36
2022-11-16T14:43:44.683Z,8.33
2022-11-16T14:46:35.673Z,8.36
2022-11-16T14:49:03.163Z,8.31
2022-11-16T14:51:34.156Z,8.33
2022-11-16T14:54:21.873Z,8.24
2022-11-16T14:57:03.681Z,8.24
2022-11-16T14:59:31.280Z,8.16
2022-11-16T15:02:04.622Z,8.23
2022-11-16T15:04:31.922Z,8.34
2022-11-16T15:07:04.961Z,8.20
2022-11-16T15:09:44.930Z,8.12
2022-11-16T15:12:36.680Z,8.19
2022-11-16T15:15:08.385Z,8.17
2022-11-16T15:17:35.498Z,8.26
2022-11-16T15:20:15.638Z,8.16
2022-11-16T15:22:44.998Z,8.20
2022-11-16T15:25:25.599Z,8.14
2022-11-16T15:27:52.606Z,8.15
2022-11-16T15:30:25.375Z,8.12
2022-11-16T15:32:53.817Z,8.03
2022-11-16T15:35:34.668Z,8.08
2022-11-16T15:38:05.807Z,8.05
2022-11-16T15:40:34.153Z,8.14
2022-11-16T15:43:04.249Z,8.08
2022-11-16T15:45:32.014Z,8.14
2022-11-16T15:48:00.626Z,8.14
2022-11-16T15:50:28.301Z,8.14
2022-11-16T15:52:56.056Z,8.08
2022-11-16T15:55:31.951Z,7.94
2022-11-16T15:58:06.280Z,8.02
2022-11-16T16:00:36.794Z,8.08
2022-11-16T16:03:05.259Z,8.04
2022-11-16T16:05:39.819Z,7.95
2022-11-16T16:08:31.709Z,7.95
2022-11-16T16:11:04.317Z,7.99
2022-11-16T16:13:37.613Z,7.96
2022-11-16T16:16:26.205Z,7.98
2022-11-16T16:18:54.813Z,7.99
2022-11-16T16:21:21.638Z,7.95
2022-11-16T16:23:54.011Z,8.01
2022-11-16T16:26:22.343Z,8.00
2022-11-16T16:28:50.997Z,7.94
2022-11-16T16:31:19.150Z,7.92
2022-11-16T16:33:46.139Z,7.88
2022-11-16T16:36:13.766Z,7.91
2022-11-16T16:38:40.482Z,8.02
2022-11-16T16:41:07.716Z,7.97
2022-11-16T16:43:35.177Z,8.06
2022-11-16T16:46:06.775Z,8.08
2022-11-16T16:48:33.508Z,8.00
2022-11-16T16:51:00.247Z,7.95
2022-11-16T16:53:26.960Z,7.95
2022-11-16T16:55:53.883Z,7.95
2022-11-16T16:58:20.823Z,8.00
2022-11-16T17:03:36.901Z,7.88
2022-11-16T17:06:20.092Z,7.93
2022-11-16T17:09:06.793Z,8.04
2022-11-16T17:12:00.366Z,8.00
2022-11-16T17:14:51.349Z,7.93
2022-11-16T17:17:42.836Z,7.99
2022-11-16T17:20:16.519Z,7.93
2022-11-16T17:22:43.952Z,7.93
2022-11-16T17:28:10.376Z,7.99
2022-11-16T17:30:46.931Z,7.83
2022-11-16T17:33:22.094Z,7.91
2022-11-16T17:35:56.365Z,7.95
2022-11-16T17:38:22.916Z,7.89
2022-11-16T17:40:49.810Z,7.85
2022-11-16T17:43:16.455Z,7.87
2022-11-16T17:45:43.046Z,7.95
2022-11-16T17:48:31.459Z,7.86
2022-11-16T17:51:03.050Z,7.95
2022-11-16T17:53:36.136Z,7.97
2022-11-16T17:56:07.107Z,8.00
2022-11-16T17:58:43.972Z,7.94
2022-11-16T18:01:11.489Z,7.93
2022-11-16T18:03:39.674Z,7.88
2022-11-16T18:06:14.387Z,7.88
2022-11-16T18:08:45.125Z,7.97
2022-11-16T18:11:18.755Z,7.96
2022-11-16T18:13:52.626Z,8.03
2022-11-16T18:16:57.210Z,7.95
2022-11-16T18:19:32.645Z,7.97
2022-11-16T18:22:26.269Z,7.92
2022-11-16T18:24:56.447Z,7.93
2022-11-16T18:27:41.579Z,7.92
2022-11-16T18:30:24.168Z,7.94
2022-11-16T18:33:07.172Z,7.90
2022-11-16T18:36:05.997Z,7.78
2022-11-16T18:38:58.610Z,7.88
2022-11-16T18:41:37.694Z,7.83
2022-11-16T18:44:21.997Z,7.87
2022-11-16T18:46:55.157Z,7.92
2022-11-16T18:49:34.217Z,7.88
2022-11-16T18:52:16.506Z,7.93
2022-11-16T18:54:47.427Z,7.86
2022-11-16T18:57:21.303Z,7.82
2022-11-16T18:59:48.489Z,7.84
2022-11-16T19:04:57.825Z,7.72
2022-11-16T19:07:27.629Z,7.75
2022-11-16T19:09:56.374Z,7.72
2022-11-16T19:12:28.571Z,7.72
2022-11-16T19:15:11.396Z,7.74
2022-11-16T19:18:06.394Z,7.68
2022-11-16T19:20:35.483Z,7.67
2022-11-16T19:23:06.953Z,7.72
2022-11-16T19:25:36.168Z,7.69
2022-11-16T19:28:04.747Z,7.81
2022-11-16T19:30:32.954Z,7.65
2022-11-16T19:33:04.924Z,7.72
2022-11-16T19:35:33.673Z,7.71
2022-11-16T19:38:02.688Z,7.65
2022-11-16T19:40:32.326Z,7.72
2022-11-16T19:43:01.518Z,7.68
2022-11-16T19:45:28.125Z,7.69
2022-11-16T19:47:56.126Z,7.72
2022-11-16T19:50:24.920Z,7.65
2022-11-16T19:52:54.108Z,7.66
2022-11-16T19:55:20.844Z,7.70
2022-11-16T19:57:48.069Z,7.70
2022-11-16T20:00:18.030Z,7.67
2022-11-16T20:02:44.591Z,7.62
2022-11-16T20:05:11.229Z,7.65
2022-11-16T20:07:40.677Z,7.66
2022-11-16T20:10:07.538Z,7.71
2022-11-16T20:12:36.799Z,7.71
2022-11-16T20:15:05.782Z,7.64
2022-11-16T20:17:34.839Z,7.66
2022-11-16T20:20:01.430Z,7.70
2022-11-16T20:22:31.005Z,7.74
2022-11-16T20:24:57.553Z,7.70
2022-11-16T20:27:24.131Z,7.80
2022-11-16T20:29:50.728Z,7.74
2022-11-16T20:32:17.364Z,7.64
2022-11-16T20:34:43.899Z,7.67
2022-11-16T20:37:10.656Z,7.73
2022-11-16T20:39:40.105Z,7.66
2022-11-16T20:42:06.668Z,7.67
2022-11-16T20:44:39.271Z,7.63
2022-11-16T20:47:06.422Z,7.56
2022-11-16T20:49:32.959Z,7.61
2022-11-16T20:51:59.521Z,7.67
2022-11-16T20:54:26.138Z,7.61
2022-11-16T20:56:52.881Z,7.66
2022-11-16T20:59:19.526Z,7.57
2022-11-16T21:01:48.786Z,7.64
2022-11-16T21:04:15.772Z,7.57
2022-11-16T21:06:42.599Z,7.71
2022-11-16T21:09:12.001Z,7.75
2022-11-16T21:11:57.441Z,7.73
2022-11-16T21:14:24.115Z,7.75
2022-11-16T21:16:50.974Z,7.74
2022-11-16T21:19:17.630Z,7.61
2022-11-16T21:21:44.259Z,7.67
2022-11-16T21:24:11.021Z,7.77
2022-11-16T21:26:38.025Z,7.80
2022-11-16T21:29:05.332Z,7.72
2022-11-16T21:31:34.306Z,7.80
2022-11-16T21:34:01.382Z,7.68
2022-11-16T21:36:30.431Z,7.78
2022-11-16T21:38:58.169Z,7.83
2022-11-16T21:41:25.817Z,7.75
2022-11-16T21:43:52.527Z,7.70
2022-11-16T21:46:22.807Z,7.64
2022-11-16T21:48:51.186Z,7.62
2022-11-16T21:51:19.588Z,7.63
2022-11-16T21:53:46.681Z,7.65
2022-11-16T21:56:15.504Z,7.66
2022-11-16T21:58:42.684Z,7.56
2022-11-16T22:01:10.740Z,7.66
2022-11-16T22:03:37.819Z,7.67
2022-11-16T22:06:25.281Z,7.63
2022-11-16T22:08:53.770Z,7.55
2022-11-16T22:11:22.272Z,7.58
2022-11-16T22:13:50.258Z,7.49
2022-11-16T22:16:18.120Z,7.51
2022-11-16T22:18:44.896Z,7.46
2022-11-16T22:21:11.969Z,7.52
2022-11-16T22:23:39.157Z,7.57
2022-11-16T22:26:08.522Z,7.57
2022-11-16T22:28:36.105Z,7.55
2022-11-16T22:31:08.477Z,7.61
2022-11-16T22:33:35.875Z,7.58
2022-11-16T22:36:03.425Z,7.54
2022-11-16T22:38:30.053Z,7.54
2022-11-16T22:40:57.876Z,7.48
2022-11-16T22:43:29.724Z,7.47
2022-11-16T22:46:01.375Z,7.54
2022-11-16T22:48:36.518Z,7.55
2022-11-16T22:51:23.666Z,7.56
2022-11-16T22:53:57.898Z,7.59
2022-11-16T22:56:25.177Z,7.58
2022-11-16T22:58:51.958Z,7.62
2022-11-16T23:01:19.851Z,7.62
2022-11-16T23:03:47.628Z,7.51
2022-11-16T23:06:14.842Z,7.55
2022-11-16T23:08:41.602Z,7.47
2022-11-16T23:11:30.784Z,7.62
2022-11-16T23:14:16.419Z,7.60
2022-11-16T23:16:44.022Z,7.56
2022-11-16T23:19:32.146Z,7.61
2022-11-16T23:22:17.971Z,7.60
2022-11-16T23:25:04.453Z,7.56
2022-11-16T23:27:42.152Z,7.60
2022-11-16T23:30:12.701Z,7.56
2022-11-16T23:32:40.775Z,7.51
2022-11-16T23:35:08.012Z,7.56
2022-11-16T23:37:34.901Z,7.54
2022-11-16T23:40:01.550Z,7.58
2022-11-16T23:42:46.888Z,7.57
2022-11-16T23:45:13.552Z,7.56
2022-11-16T23:47:40.241Z,7.50
2022-11-16T23:50:07.092Z,7.50
2022-11-16T23:52:33.727Z,7.59
2022-11-16T23:55:00.395Z,7.55
2022-11-16T23:57:26.996Z,7.51
2022-11-16T23:59:53.562Z,7.50
